Time;durP1;ratioP1;P1;durP2;ratioP2;P2;SDS_P1;SDS_P2;PMS_P1;PMS_P2;Temp;Humidity;BMP_temperature;BMP_pressure;BME280_temperature;BME280_humidity;BME280_pressure;Samples;Min_cycle;Max_cycle;Signal;HPM_P1;HPM_P2
2021/07/19 00:02:07;;;;;;;3.60;2.05;;;;;;;;;;5095003;28;20020;-59
2021/07/19 00:04:38;;;;;;;3.88;1.70;;;;;;;;;;5094888;28;20031;-59
2021/07/19 00:07:04;;;;;;;3.53;1.75;;;;;;;;;;5095290;28;20032;-59
2021/07/19 00:09:30;;;;;;;3.47;1.92;;;;;;;;;;5095050;28;20416;-59
2021/07/19 00:11:56;;;;;;;2.85;1.95;;;;;;;;;;5095136;28;20044;-59
2021/07/19 00:14:22;;;;;;;3.83;2.20;;;;;;;;;;5094886;28;20042;-59
2021/07/19 00:16:48;;;;;;;4.05;2.00;;;;;;;;;;5094889;28;20400;-59
2021/07/19 00:19:14;;;;;;;3.53;2.40;;;;;;;;;;5094658;28;20446;-59
2021/07/19 00:21:40;;;;;;;3.08;2.30;;;;;;;;;;5095304;28;20366;-59
2021/07/19 00:24:06;;;;;;;5.25;2.25;;;;;;;;;;5094546;28;20024;-59
2021/07/19 00:26:32;;;;;;;2.67;1.80;;;;;;;;;;5093271;28;20058;-59
2021/07/19 00:28:58;;;;;;;3.35;2.42;;;;;;;;;;5094478;28;20426;-59
2021/07/19 00:31:25;;;;;;;3.22;1.85;;;;;;;;;;5094937;28;20028;-59
2021/07/19 00:33:51;;;;;;;3.42;2.33;;;;;;;;;;5094022;28;20511;-59
2021/07/19 00:36:17;;;;;;;4.85;1.80;;;;;;;;;;5092319;28;20016;-59
2021/07/19 00:38:43;;;;;;;3.47;2.30;;;;;;;;;;5094044;28;20492;-59
2021/07/19 00:41:11;;;;;;;3.40;2.40;;;;;;;;;;5094662;28;20024;-59
2021/07/19 00:43:36;;;;;;;3.85;2.05;;;;;;;;;;5094194;28;20016;-59
2021/07/19 00:46:02;;;;;;;2.50;1.70;;;;;;;;;;5094143;28;20024;-59
2021/07/19 00:48:28;;;;;;;4.57;2.70;;;;;;;;;;5094178;28;20024;-59
2021/07/19 00:50:55;;;;;;;3.65;2.17;;;;;;;;;;5094054;28;20031;-59
2021/07/19 00:53:21;;;;;;;2.38;1.67;;;;;;;;;;5094678;28;20028;-59
2021/07/19 00:55:48;;;;;;;2.95;2.20;;;;;;;;;;5093990;28;20031;-59
2021/07/19 00:58:15;;;;;;;3.03;2.30;;;;;;;;;;5094001;28;20480;-59
2021/07/19 01:00:42;;;;;;;3.85;2.65;;;;;;;;;;5092653;28;20032;-59
2021/07/19 01:03:09;;;;;;;3.42;2.08;;;;;;;;;;5094298;28;20024;-59
2021/07/19 01:05:39;;;;;;;3.15;2.08;;;;;;;;;;5093879;28;20081;-59
2021/07/19 01:08:06;;;;;;;3.40;1.95;;;;;;;;;;5093987;28;20020;-59
2021/07/19 01:10:32;;;;;;;6.60;3.65;;;;;;;;;;5093804;28;20048;-59
2021/07/19 01:12:58;;;;;;;2.47;1.73;;;;;;;;;;5093974;28;20028;-59
2021/07/19 01:15:25;;;;;;;3.38;2.05;;;;;;;;;;5093934;28;20058;-59
2021/07/19 01:17:52;;;;;;;5.07;2.30;;;;;;;;;;5093815;28;20069;-59
2021/07/19 01:20:20;;;;;;;3.03;2.28;;;;;;;;;;5093856;28;20043;-59
2021/07/19 01:22:52;;;;;;;4.32;2.13;;;;;;;;;;5094178;28;20039;-59
2021/07/19 01:25:18;;;;;;;7.50;3.03;;;;;;;;;;5094073;28;20124;-59
2021/07/19 01:28:03;;;;;;;2.80;2.13;;;;;;;;;;5092443;28;20031;-59
2021/07/19 01:30:30;;;;;;;2.85;2.15;;;;;;;;;;5094549;28;20028;-59
2021/07/19 01:32:57;;;;;;;3.65;2.25;;;;;;;;;;5093977;28;20030;-59
2021/07/19 01:35:23;;;;;;;5.32;2.38;;;;;;;;;;5093719;28;20043;-59
2021/07/19 01:37:50;;;;;;;3.60;2.38;;;;;;;;;;5092359;28;20039;-59
2021/07/19 01:40:16;;;;;;;3.47;2.70;;;;;;;;;;5092382;28;20165;-59
2021/07/19 01:42:43;;;;;;;3.95;2.40;;;;;;;;;;5093602;28;20031;-59
2021/07/19 01:45:10;;;;;;;4.53;2.38;;;;;;;;;;5092428;28;20048;-59
2021/07/19 01:47:36;;;;;;;5.30;2.80;;;;;;;;;;5096658;28;20023;-59
2021/07/19 01:50:04;;;;;;;3.55;2.55;;;;;;;;;;5097355;28;20089;-59
2021/07/19 01:52:30;;;;;;;2.90;2.28;;;;;;;;;;5097571;28;20028;-59
2021/07/19 01:54:57;;;;;;;3.35;2.28;;;;;;;;;;5097558;28;20035;-59
2021/07/19 01:57:24;;;;;;;3.35;2.30;;;;;;;;;;5097215;28;20469;-59
2021/07/19 01:59:50;;;;;;;2.90;2.30;;;;;;;;;;5098146;28;20074;-59
2021/07/19 02:02:19;;;;;;;3.58;2.08;;;;;;;;;;5097525;28;20150;-59
2021/07/19 02:04:45;;;;;;;3.10;2.28;;;;;;;;;;5097332;28;20110;-59
2021/07/19 02:07:12;;;;;;;4.18;2.50;;;;;;;;;;5097831;28;20116;-59
2021/07/19 02:09:38;;;;;;;3.55;2.58;;;;;;;;;;5097480;28;20032;-59
2021/07/19 02:12:04;;;;;;;3.38;2.35;;;;;;;;;;5096890;28;20087;-59
2021/07/19 02:14:30;;;;;;;3.60;2.60;;;;;;;;;;5097214;28;20024;-59
2021/07/19 02:16:57;;;;;;;3.13;2.42;;;;;;;;;;5097092;28;20039;-59
2021/07/19 02:19:26;;;;;;;3.63;2.70;;;;;;;;;;5097128;28;20052;-59
2021/07/19 02:21:52;;;;;;;4.53;1.98;;;;;;;;;;5097626;28;20343;-59
2021/07/19 02:24:23;;;;;;;3.35;2.35;;;;;;;;;;5096992;28;20021;-59
2021/07/19 02:26:49;;;;;;;3.30;2.53;;;;;;;;;;5097307;28;20024;-59
2021/07/19 02:29:16;;;;;;;2.20;1.85;;;;;;;;;;5096873;28;20024;-59
2021/07/19 02:31:42;;;;;;;4.43;2.83;;;;;;;;;;5097173;28;20408;-59
2021/07/19 02:34:08;;;;;;;5.25;2.42;;;;;;;;;;5097643;28;20027;-59
2021/07/19 02:36:35;;;;;;;5.22;3.30;;;;;;;;;;5096790;28;20458;-59
2021/07/19 02:39:01;;;;;;;3.70;2.38;;;;;;;;;;5097005;28;20458;-59
2021/07/19 02:41:28;;;;;;;4.38;2.58;;;;;;;;;;5097342;28;20165;-59
2021/07/19 02:43:56;;;;;;;4.10;2.85;;;;;;;;;;5096692;28;20021;-59
2021/07/19 02:46:23;;;;;;;5.47;3.00;;;;;;;;;;5096141;28;20338;-59
2021/07/19 02:48:52;;;;;;;3.72;2.55;;;;;;;;;;5096619;28;20073;-59
2021/07/19 02:51:18;;;;;;;4.13;2.45;;;;;;;;;;5097311;28;20079;-59
2021/07/19 02:53:44;;;;;;;3.50;2.70;;;;;;;;;;5096694;28;20051;-59
2021/07/19 02:56:11;;;;;;;3.72;2.58;;;;;;;;;;5096488;28;20027;-59
2021/07/19 02:58:37;;;;;;;4.72;2.65;;;;;;;;;;5095758;28;20070;-59
2021/07/19 03:01:06;;;;;;;3.90;2.75;;;;;;;;;;5095139;28;20795;-59
2021/07/19 03:03:33;;;;;;;6.90;2.67;;;;;;;;;;5096275;28;20020;-59
2021/07/19 03:06:07;;;;;;;3.92;2.63;;;;;;;;;;5096315;28;20020;-59
2021/07/19 03:08:35;;;;;;;5.78;2.88;;;;;;;;;;5096210;28;20028;-59
2021/07/19 03:11:03;;;;;;;3.05;2.40;;;;;;;;;;5095852;28;20051;-59
2021/07/19 03:13:30;;;;;;;3.92;2.72;;;;;;;;;;5095991;28;20020;-59
2021/07/19 03:15:58;;;;;;;2.80;2.20;;;;;;;;;;5094915;28;20024;-59
2021/07/19 03:18:24;;;;;;;4.72;2.88;;;;;;;;;;5096756;28;20097;-60
2021/07/19 03:20:51;;;;;;;5.00;2.83;;;;;;;;;;5096090;28;20024;-59
2021/07/19 03:23:19;;;;;;;8.98;2.72;;;;;;;;;;5096187;28;20020;-59
2021/07/19 03:25:45;;;;;;;3.55;2.53;;;;;;;;;;5095896;28;20025;-59
2021/07/19 03:28:12;;;;;;;5.03;2.50;;;;;;;;;;5096135;28;20103;-59
2021/07/19 03:30:40;;;;;;;3.75;2.83;;;;;;;;;;5095643;28;20035;-59
2021/07/19 03:33:07;;;;;;;6.90;2.55;;;;;;;;;;5094393;28;20477;-59
2021/07/19 03:35:33;;;;;;;2.78;1.92;;;;;;;;;;5096057;28;20493;-59
2021/07/19 03:38:00;;;;;;;4.82;2.65;;;;;;;;;;5095652;28;20369;-59
2021/07/19 03:40:27;;;;;;;6.20;2.85;;;;;;;;;;5094427;28;20028;-59
2021/07/19 03:42:55;;;;;;;3.22;2.45;;;;;;;;;;5095732;28;20032;-59
2021/07/19 03:45:21;;;;;;;4.30;2.55;;;;;;;;;;5095490;28;20031;-59
2021/07/19 03:47:48;;;;;;;3.42;2.60;;;;;;;;;;5095486;28;20024;-59
2021/07/19 03:50:15;;;;;;;4.97;3.28;;;;;;;;;;5095511;28;20111;-59
2021/07/19 03:52:41;;;;;;;5.78;2.88;;;;;;;;;;5095751;28;20039;-59
2021/07/19 03:55:08;;;;;;;3.90;2.20;;;;;;;;;;5095400;28;20020;-59
2021/07/19 03:57:38;;;;;;;3.30;2.45;;;;;;;;;;5095364;28;20024;-59
2021/07/19 04:00:12;;;;;;;4.00;2.30;;;;;;;;;;5095332;28;20361;-59
2021/07/19 04:02:38;;;;;;;3.60;2.60;;;;;;;;;;5096021;28;20043;-59
2021/07/19 04:05:06;;;;;;;3.88;3.40;;;;;;;;;;5095200;28;20039;-59
2021/07/19 04:07:36;;;;;;;4.18;2.95;;;;;;;;;;5095078;28;20027;-59
2021/07/19 04:10:04;;;;;;;3.58;2.53;;;;;;;;;;5094329;28;20025;-59
2021/07/19 04:12:30;;;;;;;3.45;2.80;;;;;;;;;;5095464;28;20125;-59
2021/07/19 04:14:56;;;;;;;3.63;3.22;;;;;;;;;;5094971;28;20074;-59
2021/07/19 04:17:22;;;;;;;4.63;3.05;;;;;;;;;;5093698;28;20134;-59
2021/07/19 04:19:48;;;;;;;4.82;2.70;;;;;;;;;;5093339;28;20028;-59
2021/07/19 04:22:14;;;;;;;3.72;2.75;;;;;;;;;;5094866;28;20031;-59
2021/07/19 04:24:40;;;;;;;5.93;2.38;;;;;;;;;;5094498;28;20020;-59
2021/07/19 04:27:06;;;;;;;4.22;2.92;;;;;;;;;;5094739;28;20077;-59
2021/07/19 04:29:32;;;;;;;5.40;3.35;;;;;;;;;;5094982;28;20024;-59
2021/07/19 04:31:59;;;;;;;2.78;2.08;;;;;;;;;;5094643;28;20466;-59
2021/07/19 04:34:26;;;;;;;3.30;2.58;;;;;;;;;;5095390;28;20032;-59
2021/07/19 04:36:52;;;;;;;7.38;3.10;;;;;;;;;;5094825;28;20064;-59
2021/07/19 04:39:18;;;;;;;5.00;2.95;;;;;;;;;;5094377;28;20047;-59
2021/07/19 04:41:44;;;;;;;3.33;2.83;;;;;;;;;;5094451;28;20030;-59
2021/07/19 04:44:10;;;;;;;8.25;3.03;;;;;;;;;;5094693;28;20165;-59
2021/07/19 04:46:36;;;;;;;3.85;2.58;;;;;;;;;;5094542;28;20024;-59
2021/07/19 04:49:01;;;;;;;6.75;2.58;;;;;;;;;;5094413;28;20024;-59
2021/07/19 04:51:28;;;;;;;3.80;2.40;;;;;;;;;;5094489;28;20507;-59
2021/07/19 04:53:56;;;;;;;3.70;3.28;;;;;;;;;;5094433;28;20458;-59
2021/07/19 04:56:23;;;;;;;6.35;3.25;;;;;;;;;;5094417;28;20024;-59
2021/07/19 04:58:52;;;;;;;4.32;2.65;;;;;;;;;;5094649;28;20038;-59
2021/07/19 05:01:18;;;;;;;4.25;3.40;;;;;;;;;;5094135;28;20021;-59
2021/07/19 05:03:46;;;;;;;4.00;2.58;;;;;;;;;;5093104;28;20105;-59
2021/07/19 05:06:13;;;;;;;4.30;2.70;;;;;;;;;;5093961;28;20408;-59
2021/07/19 05:08:40;;;;;;;4.22;2.75;;;;;;;;;;5094147;28;20454;-59
2021/07/19 05:11:06;;;;;;;3.40;2.58;;;;;;;;;;5093831;28;20363;-59
2021/07/19 05:13:32;;;;;;;4.88;2.72;;;;;;;;;;5094274;28;20020;-59
2021/07/19 05:15:59;;;;;;;4.93;3.45;;;;;;;;;;5094047;28;20027;-59
2021/07/19 05:18:26;;;;;;;10.32;3.15;;;;;;;;;;5093873;28;20103;-59
2021/07/19 05:20:52;;;;;;;3.63;2.72;;;;;;;;;;5093268;28;20095;-59
2021/07/19 05:23:22;;;;;;;5.38;2.75;;;;;;;;;;5093748;28;20063;-59
2021/07/19 05:25:48;;;;;;;2.97;2.20;;;;;;;;;;5093838;28;20020;-59
2021/07/19 05:28:15;;;;;;;4.25;3.22;;;;;;;;;;5093478;28;20056;-59
2021/07/19 05:30:42;;;;;;;6.07;3.03;;;;;;;;;;5093635;28;20052;-59
2021/07/19 05:33:09;;;;;;;5.43;3.22;;;;;;;;;;5094120;28;20374;-59
2021/07/19 05:35:35;;;;;;;3.83;3.08;;;;;;;;;;5093609;28;20016;-59
2021/07/19 05:38:01;;;;;;;4.90;3.42;;;;;;;;;;5093630;28;20016;-59
2021/07/19 05:40:28;;;;;;;5.30;3.45;;;;;;;;;;5092816;28;20020;-59
2021/07/19 05:42:53;;;;;;;6.53;3.50;;;;;;;;;;5093910;28;20036;-59
2021/07/19 05:45:20;;;;;;;4.60;3.75;;;;;;;;;;5093809;28;20047;-59
2021/07/19 05:47:46;;;;;;;3.10;2.50;;;;;;;;;;5093491;28;20059;-59
2021/07/19 05:50:14;;;;;;;5.97;3.13;;;;;;;;;;5094282;28;20358;-59
2021/07/19 05:52:40;;;;;;;5.65;3.40;;;;;;;;;;5093836;28;20029;-59
2021/07/19 05:55:06;;;;;;;3.92;3.00;;;;;;;;;;5093434;28;20069;-59
2021/07/19 05:57:32;;;;;;;4.72;3.53;;;;;;;;;;5093453;28;20025;-59
2021/07/19 05:59:58;;;;;;;5.15;3.63;;;;;;;;;;5094111;28;20028;-59
2021/07/19 06:02:25;;;;;;;4.18;2.80;;;;;;;;;;5093471;28;20060;-59
2021/07/19 06:04:50;;;;;;;4.68;3.67;;;;;;;;;;5093565;28;20024;-59
2021/07/19 06:07:16;;;;;;;5.97;3.30;;;;;;;;;;5091960;28;20024;-59
2021/07/19 06:09:42;;;;;;;3.58;2.88;;;;;;;;;;5093137;28;20111;-59
2021/07/19 06:12:10;;;;;;;3.38;3.08;;;;;;;;;;5093670;28;20079;-59
2021/07/19 06:14:36;;;;;;;5.65;3.33;;;;;;;;;;5093782;28;20103;-59
2021/07/19 06:17:02;;;;;;;5.05;3.17;;;;;;;;;;5093456;28;20104;-59
2021/07/19 06:19:28;;;;;;;4.22;3.13;;;;;;;;;;5093306;28;20031;-59
2021/07/19 06:21:54;;;;;;;5.35;3.60;;;;;;;;;;5093369;28;20103;-59
2021/07/19 06:24:23;;;;;;;5.03;3.22;;;;;;;;;;5093496;28;20025;-59
2021/07/19 06:26:49;;;;;;;12.48;3.17;;;;;;;;;;5092643;28;20115;-59
2021/07/19 06:29:15;;;;;;;3.67;2.47;;;;;;;;;;5092860;28;20085;-59
2021/07/19 06:31:40;;;;;;;5.18;2.83;;;;;;;;;;5093319;28;20029;-59
2021/07/19 06:34:08;;;;;;;3.80;2.88;;;;;;;;;;5095906;28;20019;-59
2021/07/19 06:36:34;;;;;;;4.65;3.20;;;;;;;;;;5096645;28;20070;-59
2021/07/19 06:39:00;;;;;;;7.22;3.42;;;;;;;;;;5097554;28;20099;-59
2021/07/19 06:41:26;;;;;;;4.32;2.78;;;;;;;;;;5096874;28;20044;-59
2021/07/19 06:43:52;;;;;;;3.42;2.45;;;;;;;;;;5096256;28;20496;-59
2021/07/19 06:46:18;;;;;;;8.10;3.22;;;;;;;;;;5097335;28;20028;-59
2021/07/19 06:48:44;;;;;;;3.15;2.53;;;;;;;;;;5096532;28;20025;-59
2021/07/19 06:51:10;;;;;;;5.10;3.00;;;;;;;;;;5096069;28;20367;-59
2021/07/19 06:53:36;;;;;;;4.72;3.67;;;;;;;;;;5096335;28;20080;-59
2021/07/19 06:56:02;;;;;;;3.53;2.83;;;;;;;;;;5096357;28;20457;-59
2021/07/19 06:58:28;;;;;;;4.95;2.47;;;;;;;;;;5096269;28;20016;-59
2021/07/19 07:00:54;;;;;;;4.15;2.75;;;;;;;;;;5096533;28;20081;-59
2021/07/19 07:03:20;;;;;;;3.90;3.30;;;;;;;;;;5096540;28;20032;-59
2021/07/19 07:05:46;;;;;;;4.78;3.05;;;;;;;;;;5095999;28;20043;-59
2021/07/19 07:08:12;;;;;;;6.68;3.40;;;;;;;;;;5095805;28;20040;-59
2021/07/19 07:10:38;;;;;;;4.20;2.85;;;;;;;;;;5096169;28;20390;-59
2021/07/19 07:13:09;;;;;;;4.63;3.35;;;;;;;;;;5095808;28;20126;-59
2021/07/19 07:15:35;;;;;;;6.15;2.58;;;;;;;;;;5095709;28;20020;-59
2021/07/19 07:18:01;;;;;;;7.82;3.05;;;;;;;;;;5095316;28;20480;-59
2021/07/19 07:20:27;;;;;;;5.38;3.35;;;;;;;;;;5094404;28;20118;-59
2021/07/19 07:22:53;;;;;;;4.70;3.33;;;;;;;;;;5096063;28;20031;-59
2021/07/19 07:25:19;;;;;;;6.38;3.70;;;;;;;;;;5096008;28;20434;-59
2021/07/19 07:27:45;;;;;;;3.53;2.90;;;;;;;;;;5095565;28;20076;-60
2021/07/19 07:30:11;;;;;;;4.03;3.15;;;;;;;;;;5095535;28;20028;-59
2021/07/19 07:32:38;;;;;;;7.20;3.47;;;;;;;;;;5094476;28;20024;-59
2021/07/19 07:35:05;;;;;;;3.83;3.42;;;;;;;;;;5095911;28;20024;-59
2021/07/19 07:37:32;;;;;;;4.20;2.88;;;;;;;;;;5096441;28;20031;-59
2021/07/19 07:40:00;;;;;;;7.00;3.33;;;;;;;;;;5095494;28;20023;-59
2021/07/19 07:42:28;;;;;;;4.10;3.53;;;;;;;;;;5095366;28;20024;-59
2021/07/19 07:44:54;;;;;;;4.97;2.97;;;;;;;;;;5095110;28;20024;-59
2021/07/19 07:47:20;;;;;;;6.10;3.95;;;;;;;;;;5095319;28;20028;-59
2021/07/19 07:49:48;;;;;;;5.45;3.58;;;;;;;;;;5095814;28;20024;-59
2021/07/19 07:52:14;;;;;;;5.10;3.03;;;;;;;;;;5096505;28;20042;-59
2021/07/19 07:54:40;;;;;;;4.78;3.40;;;;;;;;;;5095900;28;20366;-59
2021/07/19 07:57:07;;;;;;;5.15;3.22;;;;;;;;;;5095030;28;20017;-59
2021/07/19 07:59:33;;;;;;;5.05;3.70;;;;;;;;;;5095587;28;20115;-59
2021/07/19 08:01:59;;;;;;;5.85;3.05;;;;;;;;;;5095241;28;20024;-59
2021/07/19 08:04:28;;;;;;;9.18;3.78;;;;;;;;;;5095202;28;20027;-59
2021/07/19 08:06:54;;;;;;;4.60;3.45;;;;;;;;;;5095363;28;20027;-59
2021/07/19 08:09:20;;;;;;;3.85;3.15;;;;;;;;;;5095122;28;20020;-59
2021/07/19 08:11:46;;;;;;;4.20;3.53;;;;;;;;;;5095061;28;20044;-59
2021/07/19 08:14:12;;;;;;;4.40;3.03;;;;;;;;;;5094942;28;20031;-59
2021/07/19 08:16:39;;;;;;;7.05;3.90;;;;;;;;;;5095207;28;20035;-59
2021/07/19 08:19:06;;;;;;;5.40;3.60;;;;;;;;;;5095327;28;20081;-59
2021/07/19 08:21:32;;;;;;;3.85;3.22;;;;;;;;;;5095385;28;20405;-59
2021/07/19 08:23:58;;;;;;;5.22;3.53;;;;;;;;;;5093610;28;20051;-59
2021/07/19 08:26:24;;;;;;;5.40;3.63;;;;;;;;;;5094663;28;20369;-59
2021/07/19 08:28:52;;;;;;;5.50;4.00;;;;;;;;;;5094624;28;20048;-59
2021/07/19 08:31:18;;;;;;;5.75;2.78;;;;;;;;;;5094634;28;20075;-59
2021/07/19 08:33:44;;;;;;;4.75;3.75;;;;;;;;;;5095199;28;20051;-59
2021/07/19 08:36:10;;;;;;;4.50;3.17;;;;;;;;;;5094274;28;20012;-59
2021/07/19 08:38:36;;;;;;;6.43;4.35;;;;;;;;;;5095265;28;20024;-59
2021/07/19 08:41:02;;;;;;;6.07;4.25;;;;;;;;;;5094117;28;20485;-59
2021/07/19 08:43:30;;;;;;;4.20;3.30;;;;;;;;;;5094372;28;20028;-59
2021/07/19 08:45:56;;;;;;;4.97;3.20;;;;;;;;;;5094419;28;20076;-59
2021/07/19 08:48:23;;;;;;;5.93;3.50;;;;;;;;;;5094367;28;20361;-59
2021/07/19 08:50:49;;;;;;;3.72;2.67;;;;;;;;;;5094315;28;20024;-60
2021/07/19 08:53:16;;;;;;;9.18;3.78;;;;;;;;;;5094869;28;20016;-59
2021/07/19 08:55:49;;;;;;;4.20;3.40;;;;;;;;;;5093522;28;20035;-60
2021/07/19 08:58:15;;;;;;;5.57;3.28;;;;;;;;;;5094230;28;20077;-59
2021/07/19 09:00:42;;;;;;;8.30;3.38;;;;;;;;;;5094523;28;20042;-59
2021/07/19 09:03:08;;;;;;;5.53;3.17;;;;;;;;;;5094404;28;20020;-60
2021/07/19 09:05:34;;;;;;;5.45;3.25;;;;;;;;;;5094044;28;20070;-59
2021/07/19 09:08:00;;;;;;;7.00;3.60;;;;;;;;;;5094148;28;20028;-60
2021/07/19 09:10:26;;;;;;;7.85;3.63;;;;;;;;;;5093889;28;20052;-60
2021/07/19 09:12:53;;;;;;;3.95;3.35;;;;;;;;;;5093968;28;20036;-59
2021/07/19 09:15:28;;;;;;;9.38;4.32;;;;;;;;;;5093776;28;20032;-59
2021/07/19 09:17:58;;;;;;;4.70;3.90;;;;;;;;;;5093910;28;20042;-59
2021/07/19 09:20:31;;;;;;;6.60;4.05;;;;;;;;;;5093838;28;20051;-59
2021/07/19 09:22:57;;;;;;;3.60;3.25;;;;;;;;;;5094167;28;20028;-59
2021/07/19 09:25:23;;;;;;;5.35;3.45;;;;;;;;;;5092613;28;20069;-60
2021/07/19 09:28:19;;;;;;;3.78;2.90;;;;;;;;;;5094121;28;20031;-59
2021/07/19 09:30:45;;;;;;;4.72;3.85;;;;;;;;;;5092910;28;20089;-60
2021/07/19 09:33:12;;;;;;;5.80;3.55;;;;;;;;;;5093397;28;20028;-59
2021/07/19 09:35:42;;;;;;;9.40;3.78;;;;;;;;;;5093301;28;20027;-60
2021/07/19 09:38:10;;;;;;;5.40;3.40;;;;;;;;;;5093792;28;20099;-59
2021/07/19 09:40:36;;;;;;;6.45;3.20;;;;;;;;;;5093844;28;20016;-60
2021/07/19 09:43:12;;;;;;;4.50;3.22;;;;;;;;;;5093622;28;20030;-59
2021/07/19 09:45:39;;;;;;;4.72;3.38;;;;;;;;;;5093763;28;20038;-60
2021/07/19 09:48:06;;;;;;;4.38;3.50;;;;;;;;;;5094026;28;20016;-60
2021/07/19 09:50:39;;;;;;;3.70;3.10;;;;;;;;;;5093471;28;20165;-59
2021/07/19 09:53:06;;;;;;;4.20;3.33;;;;;;;;;;5093485;28;20024;-60
2021/07/19 09:55:32;;;;;;;4.55;3.30;;;;;;;;;;5093435;28;20478;-60
2021/07/19 09:57:58;;;;;;;3.47;2.72;;;;;;;;;;5093123;28;20024;-60
2021/07/19 10:00:25;;;;;;;4.38;3.08;;;;;;;;;;5093517;28;20476;-60
2021/07/19 10:02:51;;;;;;;5.43;3.58;;;;;;;;;;5093753;28;20063;-60
2021/07/19 10:05:28;;;;;;;5.18;3.13;;;;;;;;;;5093871;28;20024;-60
2021/07/19 10:07:54;;;;;;;4.30;3.08;;;;;;;;;;5095510;28;20024;-60
2021/07/19 10:10:32;;;;;;;4.38;3.33;;;;;;;;;;5097106;28;20433;-60
2021/07/19 10:12:59;;;;;;;4.72;2.95;;;;;;;;;;5097747;28;20025;-60
2021/07/19 10:15:25;;;;;;;3.58;3.22;;;;;;;;;;5097287;28;20020;-60
2021/07/19 10:17:51;;;;;;;4.03;2.95;;;;;;;;;;5097244;28;20024;-60
2021/07/19 10:20:17;;;;;;;11.05;3.08;;;;;;;;;;5097715;28;20454;-59
2021/07/19 10:22:44;;;;;;;4.10;3.13;;;;;;;;;;5097122;28;20035;-60
2021/07/19 10:25:10;;;;;;;3.95;3.13;;;;;;;;;;5097342;28;20016;-60
2021/07/19 10:27:37;;;;;;;7.63;3.20;;;;;;;;;;5097523;28;20039;-60
2021/07/19 10:30:03;;;;;;;11.52;2.90;;;;;;;;;;5097190;28;20099;-60
2021/07/19 10:32:29;;;;;;;3.50;2.63;;;;;;;;;;5096875;28;20038;-59
2021/07/19 10:34:55;;;;;;;5.40;3.13;;;;;;;;;;5096776;28;20028;-59
2021/07/19 10:37:37;;;;;;;4.45;3.10;;;;;;;;;;5096903;28;20095;-59
2021/07/19 10:40:04;;;;;;;3.17;2.58;;;;;;;;;;5096488;28;20094;-59
2021/07/19 10:42:38;;;;;;;4.10;3.50;;;;;;;;;;5096064;28;20024;-59
2021/07/19 10:45:13;;;;;;;3.47;2.92;;;;;;;;;;5096718;28;20028;-59
2021/07/19 10:47:56;;;;;;;6.53;3.30;;;;;;;;;;5097141;28;20024;-59
2021/07/19 10:50:26;;;;;;;6.00;3.00;;;;;;;;;;5096620;28;20077;-59
2021/07/19 10:52:54;;;;;;;7.25;2.85;;;;;;;;;;5096781;28;20069;-59
2021/07/19 10:55:38;;;;;;;4.10;2.85;;;;;;;;;;5096380;28;20024;-59
2021/07/19 10:58:05;;;;;;;5.65;2.90;;;;;;;;;;5096678;28;20020;-59
2021/07/19 11:00:36;;;;;;;4.95;3.30;;;;;;;;;;5096336;28;20054;-59
2021/07/19 11:03:01;;;;;;;;;;;;;;;;;;5097111;28;20031;-59
2021/07/19 11:05:32;;;;;;;2.90;2.60;;;;;;;;;;5096262;28;20277;-59
2021/07/19 11:07:58;;;;;;;3.60;2.67;;;;;;;;;;5096260;28;20102;-59
2021/07/19 11:10:24;;;;;;;8.23;3.15;;;;;;;;;;5096484;28;20119;-59
2021/07/19 11:12:51;;;;;;;3.88;2.60;;;;;;;;;;5095193;28;20387;-59
2021/07/19 11:15:19;;;;;;;4.22;2.83;;;;;;;;;;5096145;28;20056;-59
2021/07/19 11:17:45;;;;;;;8.10;3.22;;;;;;;;;;5096362;28;20414;-59
2021/07/19 11:20:12;;;;;;;4.28;3.10;;;;;;;;;;5095646;28;20058;-59
2021/07/19 11:22:38;;;;;;;5.38;2.97;;;;;;;;;;5096046;28;20024;-59
2021/07/19 11:25:09;;;;;;;4.78;2.38;;;;;;;;;;5095909;28;20415;-59
2021/07/19 11:27:37;;;;;;;6.30;2.97;;;;;;;;;;5094696;28;20031;-59
2021/07/19 11:30:03;;;;;;;7.47;3.05;;;;;;;;;;5096308;28;20028;-59
2021/07/19 11:32:30;;;;;;;3.90;2.28;;;;;;;;;;5095861;28;20042;-59
2021/07/19 11:35:15;;;;;;;3.60;2.70;;;;;;;;;;5095666;28;20028;-59
2021/07/19 11:37:44;;;;;;;4.80;2.78;;;;;;;;;;5095521;28;20042;-59
2021/07/19 11:40:11;;;;;;;4.70;2.67;;;;;;;;;;5096082;28;20365;-59
2021/07/19 11:42:41;;;;;;;4.65;2.78;;;;;;;;;;5096056;28;20024;-59
2021/07/19 11:45:10;;;;;;;4.00;2.85;;;;;;;;;;5096227;28;20112;-59
2021/07/19 11:47:44;;;;;;;4.82;2.10;;;;;;;;;;5095261;28;20016;-59
2021/07/19 11:50:10;;;;;;;3.85;2.70;;;;;;;;;;5095334;28;20028;-59
2021/07/19 11:52:38;;;;;;;4.13;2.28;;;;;;;;;;5095540;28;20032;-59
2021/07/19 11:55:04;;;;;;;2.78;1.70;;;;;;;;;;5095516;28;20023;-59
2021/07/19 11:57:39;;;;;;;5.97;2.42;;;;;;;;;;5095327;28;20095;-59
2021/07/19 12:00:06;;;;;;;4.50;2.10;;;;;;;;;;5095114;28;20039;-59
2021/07/19 12:02:32;;;;;;;4.15;2.33;;;;;;;;;;5094777;28;20034;-59
2021/07/19 12:04:58;;;;;;;5.35;2.70;;;;;;;;;;5095099;28;20106;-59
2021/07/19 12:07:26;;;;;;;3.00;2.30;;;;;;;;;;5095210;28;20024;-59
2021/07/19 12:10:01;;;;;;;3.33;2.22;;;;;;;;;;5095048;28;20032;-59
2021/07/19 12:12:27;;;;;;;3.97;2.47;;;;;;;;;;5095763;28;20134;-59
2021/07/19 12:15:00;;;;;;;2.78;1.77;;;;;;;;;;5095077;28;20051;-59
2021/07/19 12:17:27;;;;;;;6.18;2.33;;;;;;;;;;5095506;28;20016;-60
2021/07/19 12:19:53;;;;;;;3.17;2.13;;;;;;;;;;5094758;28;20097;-59
2021/07/19 12:22:19;;;;;;;4.32;2.33;;;;;;;;;;5095388;28;20028;-60
2021/07/19 12:24:45;;;;;;;2.85;1.70;;;;;;;;;;5094944;28;20069;-59
2021/07/19 12:27:11;;;;;;;6.18;2.50;;;;;;;;;;5094667;28;20100;-60
2021/07/19 12:29:39;;;;;;;4.32;2.38;;;;;;;;;;5094476;28;20024;-60
2021/07/19 12:32:06;;;;;;;2.95;2.05;;;;;;;;;;5093469;28;20028;-60
2021/07/19 12:34:32;;;;;;;3.95;2.35;;;;;;;;;;5094509;28;20024;-60
2021/07/19 12:37:00;;;;;;;4.82;2.03;;;;;;;;;;5094498;28;20472;-60
2021/07/19 12:39:47;;;;;;;3.55;1.77;;;;;;;;;;5094852;28;20456;-60
2021/07/19 12:42:14;;;;;;;3.03;1.67;;;;;;;;;;5094154;28;20024;-60
2021/07/19 12:44:41;;;;;;;2.42;1.80;;;;;;;;;;5094305;28;20035;-60
2021/07/19 12:47:07;;;;;;;2.53;1.50;;;;;;;;;;5094738;28;20031;-60
2021/07/19 12:49:35;;;;;;;5.03;1.60;;;;;;;;;;5094242;28;20128;-60
2021/07/19 12:52:03;;;;;;;5.32;2.08;;;;;;;;;;5094498;28;20028;-60
2021/07/19 12:54:30;;;;;;;2.67;1.27;;;;;;;;;;5094087;28;20016;-60
2021/07/19 12:56:56;;;;;;;2.85;1.85;;;;;;;;;;5094322;28;20016;-60
2021/07/19 12:59:23;;;;;;;4.93;1.48;;;;;;;;;;5094122;28;20578;-60
2021/07/19 13:01:50;;;;;;;1.98;1.30;;;;;;;;;;5094101;28;20057;-60
2021/07/19 13:04:17;;;;;;;2.10;1.60;;;;;;;;;;5093989;28;20036;-60
2021/07/19 13:06:44;;;;;;;3.00;1.65;;;;;;;;;;5093910;28;20038;-60
2021/07/19 13:09:12;;;;;;;2.10;1.30;;;;;;;;;;5093886;28;20026;-60
2021/07/19 13:11:43;;;;;;;2.50;1.42;;;;;;;;;;5093386;28;20044;-60
2021/07/19 13:14:09;;;;;;;4.65;1.55;;;;;;;;;;5094407;28;20022;-60
2021/07/19 13:16:35;;;;;;;2.83;1.85;;;;;;;;;;5093867;28;20020;-60
2021/07/19 13:19:01;;;;;;;2.85;1.50;;;;;;;;;;5093927;28;20050;-60
2021/07/19 13:21:27;;;;;;;2.92;1.83;;;;;;;;;;5094335;28;20028;-60
2021/07/19 13:23:53;;;;;;;2.65;1.70;;;;;;;;;;5094332;28;20052;-60
2021/07/19 13:26:19;;;;;;;3.10;2.00;;;;;;;;;;5093719;28;20436;-60
2021/07/19 13:28:45;;;;;;;3.83;1.92;;;;;;;;;;5093785;28;20103;-60
2021/07/19 13:31:11;;;;;;;5.22;2.15;;;;;;;;;;5093887;28;20527;-60
2021/07/19 13:33:42;;;;;;;3.88;1.98;;;;;;;;;;5094253;28;20028;-60
2021/07/19 13:36:09;;;;;;;3.75;2.15;;;;;;;;;;5093618;28;20036;-60
2021/07/19 13:38:36;;;;;;;7.28;2.05;;;;;;;;;;5094048;28;20356;-60
2021/07/19 13:41:02;;;;;;;4.35;1.67;;;;;;;;;;5093551;28;20151;-60
2021/07/19 13:43:29;;;;;;;3.05;2.00;;;;;;;;;;5097392;28;20020;-60
2021/07/19 13:46:00;;;;;;;4.60;1.98;;;;;;;;;;5097778;28;20102;-60
2021/07/19 13:48:26;;;;;;;3.50;1.90;;;;;;;;;;5097969;28;20023;-60
2021/07/19 13:50:53;;;;;;;3.08;2.05;;;;;;;;;;5097671;28;20024;-60
2021/07/19 13:53:19;;;;;;;4.32;1.90;;;;;;;;;;5097500;28;20031;-60
2021/07/19 13:55:52;;;;;;;5.40;2.22;;;;;;;;;;5097810;28;20024;-60
2021/07/19 13:58:18;;;;;;;3.55;2.28;;;;;;;;;;5097502;28;20367;-60
2021/07/19 14:00:44;;;;;;;5.50;1.85;;;;;;;;;;5098202;28;20020;-60
2021/07/19 14:03:10;;;;;;;4.78;2.20;;;;;;;;;;5097721;28;20081;-60
2021/07/19 14:05:36;;;;;;;3.13;2.47;;;;;;;;;;5097593;28;20031;-60
2021/07/19 14:08:02;;;;;;;4.22;2.22;;;;;;;;;;5096899;28;20024;-60
2021/07/19 14:10:28;;;;;;;2.38;1.90;;;;;;;;;;5097770;28;20048;-60
2021/07/19 14:12:54;;;;;;;2.38;1.65;;;;;;;;;;5097144;28;20032;-60
2021/07/19 14:15:20;;;;;;;2.85;1.92;;;;;;;;;;5097506;28;20144;-60
2021/07/19 14:17:46;;;;;;;6.53;3.03;;;;;;;;;;5096985;28;20024;-60
2021/07/19 14:20:14;;;;;;;3.15;1.90;;;;;;;;;;5097212;28;20370;-59
2021/07/19 14:22:40;;;;;;;3.10;1.90;;;;;;;;;;5097364;28;20027;-59
2021/07/19 14:25:06;;;;;;;2.92;1.80;;;;;;;;;;5097184;28;20024;-59
2021/07/19 14:27:32;;;;;;;3.13;2.15;;;;;;;;;;5097103;28;20050;-59
2021/07/19 14:29:58;;;;;;;7.13;2.30;;;;;;;;;;5097313;28;20509;-59
2021/07/19 14:32:24;;;;;;;3.10;2.10;;;;;;;;;;5096799;28;20408;-60
2021/07/19 14:34:50;;;;;;;4.78;3.15;;;;;;;;;;5096764;28;20020;-59
2021/07/19 14:37:16;;;;;;;3.38;2.20;;;;;;;;;;5096732;28;20020;-60
2021/07/19 14:39:42;;;;;;;3.22;2.15;;;;;;;;;;5096579;28;20413;-59
2021/07/19 14:42:09;;;;;;;3.85;2.28;;;;;;;;;;5096910;28;20035;-59
2021/07/19 14:44:35;;;;;;;3.10;1.60;;;;;;;;;;5097052;28;20020;-60